sensor_id;sensor_type;location;lat;lon;timestamp;pressure;altitude;pressure_sealevel;temperature;humidity
82949;BME280;72736;50.236;18.876;2023-10-13T00:01:44;98782.67;;;14.85;79.18
82949;BME280;72736;50.236;18.876;2023-10-13T00:06:52;98776.17;;;14.84;79.39
82949;BME280;72736;50.236;18.876;2023-10-13T00:11:58;98774.76;;;14.83;78.95
82949;BME280;72736;50.236;18.876;2023-10-13T00:17:05;98765.50;;;14.78;78.66
82949;BME280;72736;50.236;18.876;2023-10-13T00:22:13;98757.87;;;14.72;78.94
82949;BME280;72736;50.236;18.876;2023-10-13T00:27:21;98751.42;;;14.68;79.01
82949;BME280;72736;50.236;18.876;2023-10-13T00:32:34;98745.38;;;14.64;78.83
82949;BME280;72736;50.236;18.876;2023-10-13T00:37:44;98743.67;;;14.60;79.26
82949;BME280;72736;50.236;18.876;2023-10-13T00:42:53;98751.02;;;14.55;79.39
82949;BME280;72736;50.236;18.876;2023-10-13T00:47:59;98749.48;;;14.54;79.36
82949;BME280;72736;50.236;18.876;2023-10-13T00:53:06;98752.98;;;14.51;79.33
82949;BME280;72736;50.236;18.876;2023-10-13T00:58:12;98753.73;;;14.49;79.36
82949;BME280;72736;50.236;18.876;2023-10-13T01:03:19;98747.62;;;14.48;79.06
82949;BME280;72736;50.236;18.876;2023-10-13T01:08:36;98742.66;;;14.42;78.83
82949;BME280;72736;50.236;18.876;2023-10-13T01:13:42;98741.10;;;14.36;79.06
82949;BME280;72736;50.236;18.876;2023-10-13T01:18:48;98735.12;;;14.31;79.24
82949;BME280;72736;50.236;18.876;2023-10-13T01:23:54;98735.59;;;14.23;79.55
82949;BME280;72736;50.236;18.876;2023-10-13T01:29:00;98736.08;;;14.20;79.50
82949;BME280;72736;50.236;18.876;2023-10-13T01:34:06;98730.64;;;14.15;80.02
82949;BME280;72736;50.236;18.876;2023-10-13T01:39:12;98729.44;;;14.11;79.99
82949;BME280;72736;50.236;18.876;2023-10-13T01:44:21;98735.80;;;14.10;79.98
82949;BME280;72736;50.236;18.876;2023-10-13T01:49:27;98729.35;;;14.12;79.90
82949;BME280;72736;50.236;18.876;2023-10-13T01:54:32;98726.61;;;14.12;79.62
82949;BME280;72736;50.236;18.876;2023-10-13T01:59:36;98726.71;;;14.12;79.86
82949;BME280;72736;50.236;18.876;2023-10-13T02:04:48;98723.45;;;14.10;80.01
82949;BME280;72736;50.236;18.876;2023-10-13T02:10:02;98727.95;;;14.06;80.03
82949;BME280;72736;50.236;18.876;2023-10-13T02:15:11;98731.98;;;14.00;80.33
82949;BME280;72736;50.236;18.876;2023-10-13T02:20:25;98737.73;;;13.97;80.60
82949;BME280;72736;50.236;18.876;2023-10-13T02:25:36;98737.16;;;13.95;80.41
82949;BME280;72736;50.236;18.876;2023-10-13T02:30:50;98740.67;;;13.93;79.92
82949;BME280;72736;50.236;18.876;2023-10-13T02:35:58;98737.45;;;13.91;79.89
82949;BME280;72736;50.236;18.876;2023-10-13T02:41:04;98735.36;;;13.82;79.92
82949;BME280;72736;50.236;18.876;2023-10-13T02:46:16;98736.02;;;13.77;79.88
82949;BME280;72736;50.236;18.876;2023-10-13T02:51:22;98734.08;;;13.69;80.04
82949;BME280;72736;50.236;18.876;2023-10-13T02:56:35;98734.45;;;13.67;80.06
82949;BME280;72736;50.236;18.876;2023-10-13T03:01:41;98738.52;;;13.65;79.96
82949;BME280;72736;50.236;18.876;2023-10-13T03:06:47;98740.51;;;13.59;80.24
82949;BME280;72736;50.236;18.876;2023-10-13T03:11:53;98747.16;;;13.56;80.17
82949;BME280;72736;50.236;18.876;2023-10-13T03:17:00;98741.54;;;13.57;79.86
82949;BME280;72736;50.236;18.876;2023-10-13T03:22:11;98741.78;;;13.57;80.02
82949;BME280;72736;50.236;18.876;2023-10-13T03:27:20;98737.67;;;13.56;80.26
82949;BME280;72736;50.236;18.876;2023-10-13T03:32:28;98732.29;;;13.54;80.35
82949;BME280;72736;50.236;18.876;2023-10-13T03:37:35;98731.58;;;13.52;80.28
82949;BME280;72736;50.236;18.876;2023-10-13T03:42:43;98733.83;;;13.49;80.28
82949;BME280;72736;50.236;18.876;2023-10-13T03:48:02;98737.73;;;13.51;80.53
82949;BME280;72736;50.236;18.876;2023-10-13T03:53:13;98738.88;;;13.54;80.74
82949;BME280;72736;50.236;18.876;2023-10-13T03:58:19;98739.45;;;13.58;81.29
82949;BME280;72736;50.236;18.876;2023-10-13T04:03:27;98737.85;;;13.61;81.18
82949;BME280;72736;50.236;18.876;2023-10-13T04:08:47;98733.11;;;13.67;81.24
82949;BME280;72736;50.236;18.876;2023-10-13T04:14:14;98732.70;;;13.70;81.21
82949;BME280;72736;50.236;18.876;2023-10-13T04:19:29;98727.46;;;13.73;81.32
82949;BME280;72736;50.236;18.876;2023-10-13T04:24:50;98723.84;;;13.74;81.49
82949;BME280;72736;50.236;18.876;2023-10-13T04:30:26;98724.98;;;13.73;81.83
82949;BME280;72736;50.236;18.876;2023-10-13T04:35:52;98728.76;;;13.75;82.02
82949;BME280;72736;50.236;18.876;2023-10-13T04:41:03;98734.38;;;13.79;82.36
82949;BME280;72736;50.236;18.876;2023-10-13T04:46:24;98735.64;;;13.82;82.32
82949;BME280;72736;50.236;18.876;2023-10-13T04:52:00;98739.66;;;13.85;82.24
82949;BME280;72736;50.236;18.876;2023-10-13T04:57:19;98744.27;;;13.86;82.30
82949;BME280;72736;50.236;18.876;2023-10-13T05:02:37;98746.67;;;13.88;82.55
82949;BME280;72736;50.236;18.876;2023-10-13T05:08:20;98756.27;;;13.91;82.73
82949;BME280;72736;50.236;18.876;2023-10-13T05:13:47;98756.98;;;13.92;82.69
82949;BME280;72736;50.236;18.876;2023-10-13T05:19:11;98763.90;;;13.93;82.84
82949;BME280;72736;50.236;18.876;2023-10-13T05:24:33;98771.13;;;13.93;82.96
82949;BME280;72736;50.236;18.876;2023-10-13T05:29:56;98773.81;;;13.94;82.84
82949;BME280;72736;50.236;18.876;2023-10-13T05:35:20;98776.96;;;13.95;82.57
82949;BME280;72736;50.236;18.876;2023-10-13T05:40:54;98775.52;;;13.98;83.13
82949;BME280;72736;50.236;18.876;2023-10-13T05:46:21;98777.49;;;14.00;83.22
82949;BME280;72736;50.236;18.876;2023-10-13T05:51:53;98786.15;;;14.02;83.42
82949;BME280;72736;50.236;18.876;2023-10-13T05:57:11;98790.73;;;14.05;83.00
82949;BME280;72736;50.236;18.876;2023-10-13T06:02:35;98787.02;;;14.08;83.49
82949;BME280;72736;50.236;18.876;2023-10-13T06:07:59;98789.58;;;14.11;83.63
82949;BME280;72736;50.236;18.876;2023-10-13T06:13:21;98788.08;;;14.18;83.30
82949;BME280;72736;50.236;18.876;2023-10-13T06:18:44;98793.67;;;14.23;83.86
82949;BME280;72736;50.236;18.876;2023-10-13T06:24:09;98803.48;;;14.29;84.03
82949;BME280;72736;50.236;18.876;2023-10-13T06:29:32;98809.90;;;14.37;83.80
82949;BME280;72736;50.236;18.876;2023-10-13T06:34:38;98810.35;;;14.45;83.88
82949;BME280;72736;50.236;18.876;2023-10-13T06:39:49;98817.03;;;14.54;84.06
82949;BME280;72736;50.236;18.876;2023-10-13T06:44:55;98819.20;;;14.62;84.25
82949;BME280;72736;50.236;18.876;2023-10-13T06:50:03;98821.70;;;14.69;84.59
82949;BME280;72736;50.236;18.876;2023-10-13T06:55:24;98820.66;;;14.77;84.40
82949;BME280;72736;50.236;18.876;2023-10-13T07:00:33;98820.29;;;14.84;84.20
82949;BME280;72736;50.236;18.876;2023-10-13T07:05:42;98823.33;;;14.90;84.22
82949;BME280;72736;50.236;18.876;2023-10-13T07:10:54;98819.31;;;14.97;84.26
82949;BME280;72736;50.236;18.876;2023-10-13T07:16:10;98823.89;;;15.06;84.34
82949;BME280;72736;50.236;18.876;2023-10-13T07:21:32;98827.55;;;15.18;84.44
82949;BME280;72736;50.236;18.876;2023-10-13T07:26:39;98834.86;;;15.30;84.58
82949;BME280;72736;50.236;18.876;2023-10-13T07:31:48;98836.05;;;15.42;84.36
82949;BME280;72736;50.236;18.876;2023-10-13T07:36:56;98839.86;;;15.51;84.15
82949;BME280;72736;50.236;18.876;2023-10-13T07:42:05;98834.58;;;15.59;83.76
82949;BME280;72736;50.236;18.876;2023-10-13T07:47:13;98833.02;;;15.68;83.61
82949;BME280;72736;50.236;18.876;2023-10-13T07:52:20;98837.98;;;15.81;83.35
82949;BME280;72736;50.236;18.876;2023-10-13T07:58:03;98835.91;;;15.92;83.34
82949;BME280;72736;50.236;18.876;2023-10-13T08:03:12;98828.62;;;16.01;83.09
82949;BME280;72736;50.236;18.876;2023-10-13T08:08:37;98828.29;;;16.14;82.90
82949;BME280;72736;50.236;18.876;2023-10-13T08:13:54;98828.36;;;16.28;82.63
82949;BME280;72736;50.236;18.876;2023-10-13T08:19:12;98829.41;;;16.36;82.11
82949;BME280;72736;50.236;18.876;2023-10-13T08:24:26;98831.96;;;16.42;81.83
82949;BME280;72736;50.236;18.876;2023-10-13T08:29:36;98833.13;;;16.55;81.89
82949;BME280;72736;50.236;18.876;2023-10-13T08:35:07;98836.88;;;16.67;81.50
82949;BME280;72736;50.236;18.876;2023-10-13T08:41:01;98836.05;;;16.77;81.29
82949;BME280;72736;50.236;18.876;2023-10-13T08:46:24;98827.39;;;16.91;81.55
82949;BME280;72736;50.236;18.876;2023-10-13T08:51:34;98825.67;;;17.14;80.80
82949;BME280;72736;50.236;18.876;2023-10-13T08:56:55;98827.02;;;17.34;80.17
82949;BME280;72736;50.236;18.876;2023-10-13T09:02:15;98818.34;;;17.57;79.85
82949;BME280;72736;50.236;18.876;2023-10-13T09:13:54;98802.02;;;18.44;77.49
82949;BME280;72736;50.236;18.876;2023-10-13T09:19:04;98805.10;;;18.70;76.04
82949;BME280;72736;50.236;18.876;2023-10-13T09:24:16;98805.85;;;18.91;75.44
82949;BME280;72736;50.236;18.876;2023-10-13T09:42:14;98803.01;;;19.56;73.13
82949;BME280;72736;50.236;18.876;2023-10-13T10:07:10;98794.73;;;20.17;70.77
82949;BME280;72736;50.236;18.876;2023-10-13T10:12:34;98793.40;;;20.28;70.09
82949;BME280;72736;50.236;18.876;2023-10-13T10:17:45;98787.87;;;20.36;69.94
82949;BME280;72736;50.236;18.876;2023-10-13T10:22:59;98779.38;;;20.37;68.64
82949;BME280;72736;50.236;18.876;2023-10-13T10:28:13;98768.46;;;20.42;68.06
82949;BME280;72736;50.236;18.876;2023-10-13T10:33:20;98765.61;;;20.51;67.47
82949;BME280;72736;50.236;18.876;2023-10-13T10:38:38;98758.48;;;20.63;67.55
82949;BME280;72736;50.236;18.876;2023-10-13T10:43:44;98752.14;;;20.76;67.18
82949;BME280;72736;50.236;18.876;2023-10-13T10:49:06;98749.75;;;20.81;66.20
82949;BME280;72736;50.236;18.876;2023-10-13T10:54:23;98739.88;;;20.69;65.29
82949;BME280;72736;50.236;18.876;2023-10-13T10:59:38;98743.43;;;20.68;65.41
82949;BME280;72736;50.236;18.876;2023-10-13T11:11:20;98745.09;;;20.65;65.35
82949;BME280;72736;50.236;18.876;2023-10-13T11:29:31;98722.13;;;20.71;65.46
82949;BME280;72736;50.236;18.876;2023-10-13T11:34:46;98718.85;;;20.80;65.77
82949;BME280;72736;50.236;18.876;2023-10-13T11:40:24;98719.66;;;20.85;65.06
82949;BME280;72736;50.236;18.876;2023-10-13T11:46:04;98718.50;;;20.91;65.04
82949;BME280;72736;50.236;18.876;2023-10-13T11:51:24;98715.87;;;20.94;64.49
82949;BME280;72736;50.236;18.876;2023-10-13T12:02:29;98703.59;;;20.97;64.85
82949;BME280;72736;50.236;18.876;2023-10-13T12:07:58;98705.52;;;20.89;64.70
82949;BME280;72736;50.236;18.876;2023-10-13T12:19:17;98697.36;;;20.76;64.94
82949;BME280;72736;50.236;18.876;2023-10-13T12:24:24;98692.58;;;20.68;65.07
82949;BME280;72736;50.236;18.876;2023-10-13T12:36:22;98690.07;;;20.52;65.70
82949;BME280;72736;50.236;18.876;2023-10-13T12:41:59;98684.33;;;20.57;65.49
82949;BME280;72736;50.236;18.876;2023-10-13T12:47:24;98681.25;;;20.61;65.53
82949;BME280;72736;50.236;18.876;2023-10-13T12:58:55;98675.34;;;20.50;65.17
82949;BME280;72736;50.236;18.876;2023-10-13T13:04:21;98667.96;;;20.40;65.25
82949;BME280;72736;50.236;18.876;2023-10-13T13:09:54;98658.52;;;20.29;65.32
82949;BME280;72736;50.236;18.876;2023-10-13T13:15:03;98657.54;;;20.17;65.93
82949;BME280;72736;50.236;18.876;2023-10-13T13:20:13;98658.35;;;20.08;66.42
82949;BME280;72736;50.236;18.876;2023-10-13T13:25:30;98651.73;;;20.05;66.75
82949;BME280;72736;50.236;18.876;2023-10-13T13:30:37;98649.91;;;20.04;67.01
82949;BME280;72736;50.236;18.876;2023-10-13T13:35:43;98637.12;;;20.03;67.00
82949;BME280;72736;50.236;18.876;2023-10-13T13:40:53;98625.48;;;20.06;67.40
82949;BME280;72736;50.236;18.876;2023-10-13T13:46:00;98636.40;;;20.14;67.46
82949;BME280;72736;50.236;18.876;2023-10-13T13:51:07;98637.05;;;20.20;67.15
82949;BME280;72736;50.236;18.876;2023-10-13T13:56:20;98629.45;;;20.18;67.12
82949;BME280;72736;50.236;18.876;2023-10-13T14:01:29;98627.57;;;20.15;67.13
82949;BME280;72736;50.236;18.876;2023-10-13T14:06:38;98626.86;;;20.15;67.25
82949;BME280;72736;50.236;18.876;2023-10-13T14:11:44;98632.90;;;20.15;67.41
82949;BME280;72736;50.236;18.876;2023-10-13T14:17:20;98631.98;;;20.13;67.31
82949;BME280;72736;50.236;18.876;2023-10-13T14:22:27;98630.41;;;20.07;67.52
82949;BME280;72736;50.236;18.876;2023-10-13T14:27:33;98626.54;;;20.01;67.39
82949;BME280;72736;50.236;18.876;2023-10-13T14:32:39;98622.04;;;19.91;67.43
82949;BME280;72736;50.236;18.876;2023-10-13T14:37:45;98618.18;;;19.81;67.95
82949;BME280;72736;50.236;18.876;2023-10-13T14:42:51;98616.30;;;19.72;68.10
82949;BME280;72736;50.236;18.876;2023-10-13T14:47:56;98613.44;;;19.61;68.26
82949;BME280;72736;50.236;18.876;2023-10-13T14:53:02;98609.04;;;19.52;68.62
82949;BME280;72736;50.236;18.876;2023-10-13T14:58:08;98602.34;;;19.45;68.76
82949;BME280;72736;50.236;18.876;2023-10-13T15:03:17;98595.35;;;19.38;69.26
82949;BME280;72736;50.236;18.876;2023-10-13T15:08:23;98599.19;;;19.33;69.53
82949;BME280;72736;50.236;18.876;2023-10-13T15:13:29;98595.35;;;19.27;69.65
82949;BME280;72736;50.236;18.876;2023-10-13T15:18:35;98589.45;;;19.22;69.80
82949;BME280;72736;50.236;18.876;2023-10-13T15:23:41;98580.25;;;19.15;70.14
82949;BME280;72736;50.236;18.876;2023-10-13T15:28:47;98584.14;;;19.08;70.19
82949;BME280;72736;50.236;18.876;2023-10-13T15:33:57;98577.76;;;19.02;70.58
82949;BME280;72736;50.236;18.876;2023-10-13T15:39:03;98576.09;;;18.96;70.62
82949;BME280;72736;50.236;18.876;2023-10-13T15:44:13;98572.58;;;18.92;70.80
82949;BME280;72736;50.236;18.876;2023-10-13T15:49:19;98573.73;;;18.88;70.99
82949;BME280;72736;50.236;18.876;2023-10-13T15:54:25;98575.96;;;18.82;71.16
82949;BME280;72736;50.236;18.876;2023-10-13T15:59:31;98570.05;;;18.77;71.33
82949;BME280;72736;50.236;18.876;2023-10-13T16:04:39;98567.02;;;18.70;71.39
82949;BME280;72736;50.236;18.876;2023-10-13T16:09:45;98566.39;;;18.64;71.36
82949;BME280;72736;50.236;18.876;2023-10-13T16:15:06;98564.72;;;18.57;71.76
82949;BME280;72736;50.236;18.876;2023-10-13T16:20:17;98566.42;;;18.50;71.51
82949;BME280;72736;50.236;18.876;2023-10-13T16:25:25;98557.74;;;18.45;71.87
82949;BME280;72736;50.236;18.876;2023-10-13T16:30:31;98550.82;;;18.38;72.13
82949;BME280;72736;50.236;18.876;2023-10-13T16:35:37;98544.27;;;18.31;72.36
82949;BME280;72736;50.236;18.876;2023-10-13T16:40:53;98534.24;;;18.25;72.39
82949;BME280;72736;50.236;18.876;2023-10-13T16:45:59;98524.81;;;18.21;72.23
82949;BME280;72736;50.236;18.876;2023-10-13T16:51:05;98523.89;;;18.14;72.61
82949;BME280;72736;50.236;18.876;2023-10-13T16:56:17;98519.52;;;18.08;72.67
82949;BME280;72736;50.236;18.876;2023-10-13T17:01:23;98521.52;;;18.04;72.56
82949;BME280;72736;50.236;18.876;2023-10-13T17:06:29;98519.09;;;18.00;72.49
82949;BME280;72736;50.236;18.876;2023-10-13T17:11:34;98510.85;;;17.99;72.81
82949;BME280;72736;50.236;18.876;2023-10-13T17:16:43;98508.02;;;17.97;72.61
82949;BME280;72736;50.236;18.876;2023-10-13T17:21:52;98500.77;;;17.95;72.61
82949;BME280;72736;50.236;18.876;2023-10-13T17:26:57;98494.98;;;17.90;72.32
82949;BME280;72736;50.236;18.876;2023-10-13T17:32:06;98492.37;;;17.89;72.26
82949;BME280;72736;50.236;18.876;2023-10-13T17:37:12;98489.54;;;17.86;72.45
82949;BME280;72736;50.236;18.876;2023-10-13T17:42:19;98484.45;;;17.86;72.00
82949;BME280;72736;50.236;18.876;2023-10-13T17:47:25;98480.92;;;17.88;71.93
82949;BME280;72736;50.236;18.876;2023-10-13T17:52:31;98477.35;;;17.89;71.88
82949;BME280;72736;50.236;18.876;2023-10-13T17:57:41;98475.52;;;17.90;71.67
82949;BME280;72736;50.236;18.876;2023-10-13T18:02:47;98468.69;;;17.90;71.44
82949;BME280;72736;50.236;18.876;2023-10-13T18:07:57;98464.88;;;17.91;71.30
82949;BME280;72736;50.236;18.876;2023-10-13T18:13:04;98459.69;;;17.90;71.56
82949;BME280;72736;50.236;18.876;2023-10-13T18:18:11;98462.58;;;17.89;71.50
82949;BME280;72736;50.236;18.876;2023-10-13T18:23:18;98463.38;;;17.89;71.32
82949;BME280;72736;50.236;18.876;2023-10-13T18:28:26;98462.36;;;17.89;71.27
82949;BME280;72736;50.236;18.876;2023-10-13T18:33:32;98457.24;;;17.87;71.79
82949;BME280;72736;50.236;18.876;2023-10-13T18:38:39;98457.17;;;17.83;71.48
82949;BME280;72736;50.236;18.876;2023-10-13T18:43:45;98448.45;;;17.80;71.19
82949;BME280;72736;50.236;18.876;2023-10-13T18:48:54;98446.23;;;17.79;71.02
82949;BME280;72736;50.236;18.876;2023-10-13T18:54:02;98443.25;;;17.77;71.18
82949;BME280;72736;50.236;18.876;2023-10-13T18:59:08;98439.02;;;17.76;71.29
82949;BME280;72736;50.236;18.876;2023-10-13T19:04:20;98439.56;;;17.77;70.98
82949;BME280;72736;50.236;18.876;2023-10-13T19:09:26;98435.82;;;17.75;71.11
82949;BME280;72736;50.236;18.876;2023-10-13T19:14:38;98431.70;;;17.75;70.61
82949;BME280;72736;50.236;18.876;2023-10-13T19:19:46;98425.86;;;17.73;71.01
82949;BME280;72736;50.236;18.876;2023-10-13T19:24:51;98427.70;;;17.72;70.68
82949;BME280;72736;50.236;18.876;2023-10-13T19:29:59;98430.58;;;17.71;70.73
82949;BME280;72736;50.236;18.876;2023-10-13T19:35:10;98428.89;;;17.71;70.59
82949;BME280;72736;50.236;18.876;2023-10-13T19:40:33;98428.79;;;17.70;70.46
82949;BME280;72736;50.236;18.876;2023-10-13T19:45:40;98420.67;;;17.65;70.81
82949;BME280;72736;50.236;18.876;2023-10-13T19:50:52;98424.52;;;17.61;70.71
82949;BME280;72736;50.236;18.876;2023-10-13T19:56:01;98422.84;;;17.60;70.31
82949;BME280;72736;50.236;18.876;2023-10-13T20:01:13;98419.30;;;17.58;70.34
82949;BME280;72736;50.236;18.876;2023-10-13T20:06:21;98418.88;;;17.59;70.09
82949;BME280;72736;50.236;18.876;2023-10-13T20:11:28;98409.17;;;17.58;70.13
82949;BME280;72736;50.236;18.876;2023-10-13T20:16:33;98400.14;;;17.54;69.90
82949;BME280;72736;50.236;18.876;2023-10-13T20:21:40;98397.23;;;17.51;70.38
82949;BME280;72736;50.236;18.876;2023-10-13T20:26:46;98396.52;;;17.49;70.02
82949;BME280;72736;50.236;18.876;2023-10-13T20:31:52;98397.98;;;17.46;70.15
82949;BME280;72736;50.236;18.876;2023-10-13T20:49:35;98370.96;;;17.37;70.04
82949;BME280;72736;50.236;18.876;2023-10-13T20:55:10;98370.85;;;17.33;69.90
82949;BME280;72736;50.236;18.876;2023-10-13T21:01:15;98361.64;;;17.33;70.06
82949;BME280;72736;50.236;18.876;2023-10-13T21:06:30;98354.61;;;17.33;69.76
82949;BME280;72736;50.236;18.876;2023-10-13T21:11:42;98350.80;;;17.32;70.13
82949;BME280;72736;50.236;18.876;2023-10-13T21:16:54;98344.33;;;17.32;69.94
82949;BME280;72736;50.236;18.876;2023-10-13T21:22:00;98346.59;;;17.34;70.01
82949;BME280;72736;50.236;18.876;2023-10-13T21:27:13;98342.64;;;17.35;69.47
82949;BME280;72736;50.236;18.876;2023-10-13T21:32:20;98342.95;;;17.36;69.78
82949;BME280;72736;50.236;18.876;2023-10-13T21:37:30;98336.63;;;17.36;69.56
82949;BME280;72736;50.236;18.876;2023-10-13T21:42:36;98329.43;;;17.34;69.35
82949;BME280;72736;50.236;18.876;2023-10-13T21:47:42;98323.69;;;17.33;69.53
82949;BME280;72736;50.236;18.876;2023-10-13T21:52:49;98322.29;;;17.32;69.10
82949;BME280;72736;50.236;18.876;2023-10-13T21:57:55;98322.18;;;17.32;68.94
82949;BME280;72736;50.236;18.876;2023-10-13T22:03:06;98314.27;;;17.33;68.88
82949;BME280;72736;50.236;18.876;2023-10-13T22:08:17;98309.07;;;17.35;69.13
82949;BME280;72736;50.236;18.876;2023-10-13T22:13:23;98303.38;;;17.36;68.95
82949;BME280;72736;50.236;18.876;2023-10-13T22:18:38;98295.96;;;17.36;68.75
82949;BME280;72736;50.236;18.876;2023-10-13T22:23:50;98289.96;;;17.35;68.20
82949;BME280;72736;50.236;18.876;2023-10-13T22:28:56;98282.27;;;17.34;68.29
82949;BME280;72736;50.236;18.876;2023-10-13T22:34:04;98277.18;;;17.32;68.40
82949;BME280;72736;50.236;18.876;2023-10-13T22:39:10;98274.05;;;17.31;68.01
82949;BME280;72736;50.236;18.876;2023-10-13T22:44:19;98270.26;;;17.31;68.02
82949;BME280;72736;50.236;18.876;2023-10-13T22:49:25;98272.64;;;17.30;68.07
82949;BME280;72736;50.236;18.876;2023-10-13T22:54:31;98269.50;;;17.28;67.92
82949;BME280;72736;50.236;18.876;2023-10-13T22:59:42;98267.61;;;17.26;67.96
82949;BME280;72736;50.236;18.876;2023-10-13T23:04:48;98259.60;;;17.25;68.05
82949;BME280;72736;50.236;18.876;2023-10-13T23:09:56;98250.50;;;17.19;68.39
82949;BME280;72736;50.236;18.876;2023-10-13T23:15:06;98242.40;;;17.09;68.56
82949;BME280;72736;50.236;18.876;2023-10-13T23:20:17;98232.46;;;16.98;68.87
82949;BME280;72736;50.236;18.876;2023-10-13T23:25:24;98228.02;;;16.89;69.39
82949;BME280;72736;50.236;18.876;2023-10-13T23:30:30;98228.71;;;16.82;69.38
82949;BME280;72736;50.236;18.876;2023-10-13T23:35:36;98221.68;;;16.73;69.91
82949;BME280;72736;50.236;18.876;2023-10-13T23:40:41;98210.70;;;16.65;69.73
82949;BME280;72736;50.236;18.876;2023-10-13T23:45:52;98203.61;;;16.60;69.98
82949;BME280;72736;50.236;18.876;2023-10-13T23:51:04;98196.10;;;16.58;70.23
82949;BME280;72736;50.236;18.876;2023-10-13T23:56:11;98190.31;;;16.59;70.20
